sensor_id;sensor_type;location;lat;lon;timestamp;temperature;humidity
12504;DHT22;6316;48.118;-1.690;2023-03-14T00:01:53;12.70;99.90
12504;DHT22;6316;48.118;-1.690;2023-03-14T00:04:19;12.70;99.90
12504;DHT22;6316;48.118;-1.690;2023-03-14T00:06:44;12.70;99.90
12504;DHT22;6316;48.118;-1.690;2023-03-14T00:09:12;12.70;99.90
12504;DHT22;6316;48.118;-1.690;2023-03-14T00:11:38;12.70;99.90
12504;DHT22;6316;48.118;-1.690;2023-03-14T00:14:04;12.80;99.90
12504;DHT22;6316;48.118;-1.690;2023-03-14T00:16:29;12.80;99.90
12504;DHT22;6316;48.118;-1.690;2023-03-14T00:18:55;12.80;99.90
12504;DHT22;6316;48.118;-1.690;2023-03-14T00:21:21;12.80;99.90
12504;DHT22;6316;48.118;-1.690;2023-03-14T00:23:46;12.80;99.90
12504;DHT22;6316;48.118;-1.690;2023-03-14T00:26:15;12.80;99.90
12504;DHT22;6316;48.118;-1.690;2023-03-14T00:28:42;12.80;99.90
12504;DHT22;6316;48.118;-1.690;2023-03-14T00:31:10;12.80;99.90
12504;DHT22;6316;48.118;-1.690;2023-03-14T00:33:36;12.80;99.90
12504;DHT22;6316;48.118;-1.690;2023-03-14T00:36:05;12.80;99.90
12504;DHT22;6316;48.118;-1.690;2023-03-14T00:38:32;12.80;99.90
12504;DHT22;6316;48.118;-1.690;2023-03-14T00:40:58;12.80;99.90
12504;DHT22;6316;48.118;-1.690;2023-03-14T00:43:24;12.80;99.90
12504;DHT22;6316;48.118;-1.690;2023-03-14T00:45:51;12.80;99.90
12504;DHT22;6316;48.118;-1.690;2023-03-14T00:48:18;12.80;99.90
12504;DHT22;6316;48.118;-1.690;2023-03-14T00:50:49;12.80;99.90
12504;DHT22;6316;48.118;-1.690;2023-03-14T00:53:16;12.80;99.90
12504;DHT22;6316;48.118;-1.690;2023-03-14T00:55:43;12.70;99.90
12504;DHT22;6316;48.118;-1.690;2023-03-14T00:58:10;12.70;99.90
12504;DHT22;6316;48.118;-1.690;2023-03-14T01:00:36;12.70;99.90
12504;DHT22;6316;48.118;-1.690;2023-03-14T01:03:02;12.60;99.90
12504;DHT22;6316;48.118;-1.690;2023-03-14T01:05:28;12.60;99.90
12504;DHT22;6316;48.118;-1.690;2023-03-14T01:07:54;12.50;99.90
12504;DHT22;6316;48.118;-1.690;2023-03-14T01:10:20;12.40;99.90
12504;DHT22;6316;48.118;-1.690;2023-03-14T01:12:46;12.30;99.90
12504;DHT22;6316;48.118;-1.690;2023-03-14T01:15:12;12.20;99.90
12504;DHT22;6316;48.118;-1.690;2023-03-14T01:17:37;12.10;99.90
12504;DHT22;6316;48.118;-1.690;2023-03-14T01:20:05;12.10;99.90
12504;DHT22;6316;48.118;-1.690;2023-03-14T01:22:31;12.00;99.90
12504;DHT22;6316;48.118;-1.690;2023-03-14T01:24:57;12.00;99.90
12504;DHT22;6316;48.118;-1.690;2023-03-14T01:27:23;12.00;99.90
12504;DHT22;6316;48.118;-1.690;2023-03-14T01:29:48;12.00;99.90
12504;DHT22;6316;48.118;-1.690;2023-03-14T01:32:14;12.00;99.90
12504;DHT22;6316;48.118;-1.690;2023-03-14T01:34:40;11.90;99.90
12504;DHT22;6316;48.118;-1.690;2023-03-14T01:37:05;11.90;99.90
12504;DHT22;6316;48.118;-1.690;2023-03-14T01:39:33;11.90;99.90
12504;DHT22;6316;48.118;-1.690;2023-03-14T01:42:00;11.90;99.90
12504;DHT22;6316;48.118;-1.690;2023-03-14T01:44:26;11.90;99.90
12504;DHT22;6316;48.118;-1.690;2023-03-14T01:46:52;11.90;99.90
12504;DHT22;6316;48.118;-1.690;2023-03-14T01:49:22;11.90;99.90
12504;DHT22;6316;48.118;-1.690;2023-03-14T01:52:07;11.90;99.90
12504;DHT22;6316;48.118;-1.690;2023-03-14T01:54:40;11.90;99.90
12504;DHT22;6316;48.118;-1.690;2023-03-14T01:59:34;11.80;99.90
12504;DHT22;6316;48.118;-1.690;2023-03-14T02:02:04;11.80;99.90
12504;DHT22;6316;48.118;-1.690;2023-03-14T02:04:34;11.60;99.90
12504;DHT22;6316;48.118;-1.690;2023-03-14T02:07:12;11.60;99.90
12504;DHT22;6316;48.118;-1.690;2023-03-14T02:09:40;11.40;99.90
12504;DHT22;6316;48.118;-1.690;2023-03-14T02:12:09;11.30;99.90
12504;DHT22;6316;48.118;-1.690;2023-03-14T02:14:36;11.30;99.90
12504;DHT22;6316;48.118;-1.690;2023-03-14T02:17:04;11.20;99.90
12504;DHT22;6316;48.118;-1.690;2023-03-14T02:22:35;11.10;99.90
12504;DHT22;6316;48.118;-1.690;2023-03-14T02:27:45;11.00;99.90
12504;DHT22;6316;48.118;-1.690;2023-03-14T02:30:19;10.90;99.90
12504;DHT22;6316;48.118;-1.690;2023-03-14T02:32:54;10.90;99.90
12504;DHT22;6316;48.118;-1.690;2023-03-14T02:35:24;10.80;99.90
12504;DHT22;6316;48.118;-1.690;2023-03-14T02:38:06;10.80;99.90
12504;DHT22;6316;48.118;-1.690;2023-03-14T02:40:33;10.80;99.90
12504;DHT22;6316;48.118;-1.690;2023-03-14T02:42:59;10.90;99.90
12504;DHT22;6316;48.118;-1.690;2023-03-14T02:48:04;10.90;99.90
12504;DHT22;6316;48.118;-1.690;2023-03-14T02:50:33;10.90;99.90
12504;DHT22;6316;48.118;-1.690;2023-03-14T02:52:59;10.90;99.90
12504;DHT22;6316;48.118;-1.690;2023-03-14T02:55:25;10.80;99.90
12504;DHT22;6316;48.118;-1.690;2023-03-14T02:57:52;10.80;99.90
12504;DHT22;6316;48.118;-1.690;2023-03-14T03:00:19;10.80;99.90
12504;DHT22;6316;48.118;-1.690;2023-03-14T03:02:45;10.70;99.90
12504;DHT22;6316;48.118;-1.690;2023-03-14T03:05:10;10.60;99.90
12504;DHT22;6316;48.118;-1.690;2023-03-14T03:07:36;10.60;99.90
12504;DHT22;6316;48.118;-1.690;2023-03-14T03:10:02;10.50;99.90
12504;DHT22;6316;48.118;-1.690;2023-03-14T03:12:28;10.50;99.90
12504;DHT22;6316;48.118;-1.690;2023-03-14T03:14:54;10.40;99.90
12504;DHT22;6316;48.118;-1.690;2023-03-14T03:17:19;10.40;99.90
12504;DHT22;6316;48.118;-1.690;2023-03-14T03:19:45;10.40;99.90
12504;DHT22;6316;48.118;-1.690;2023-03-14T03:22:11;10.40;99.90
12504;DHT22;6316;48.118;-1.690;2023-03-14T03:24:37;10.40;99.90
12504;DHT22;6316;48.118;-1.690;2023-03-14T03:27:02;10.40;99.90
12504;DHT22;6316;48.118;-1.690;2023-03-14T03:29:28;10.40;99.90
12504;DHT22;6316;48.118;-1.690;2023-03-14T03:31:54;10.50;99.90
12504;DHT22;6316;48.118;-1.690;2023-03-14T03:34:19;10.50;99.90
12504;DHT22;6316;48.118;-1.690;2023-03-14T03:36:45;10.50;99.90
12504;DHT22;6316;48.118;-1.690;2023-03-14T03:39:11;10.50;99.90
12504;DHT22;6316;48.118;-1.690;2023-03-14T03:41:36;10.50;99.90
12504;DHT22;6316;48.118;-1.690;2023-03-14T03:44:02;10.50;99.90
12504;DHT22;6316;48.118;-1.690;2023-03-14T03:46:28;10.50;99.90
12504;DHT22;6316;48.118;-1.690;2023-03-14T03:48:58;10.50;99.90
12504;DHT22;6316;48.118;-1.690;2023-03-14T03:51:24;10.50;99.90
12504;DHT22;6316;48.118;-1.690;2023-03-14T03:53:50;10.50;99.90
12504;DHT22;6316;48.118;-1.690;2023-03-14T03:56:16;10.50;99.90
12504;DHT22;6316;48.118;-1.690;2023-03-14T03:58:41;10.50;99.90
12504;DHT22;6316;48.118;-1.690;2023-03-14T04:01:08;10.50;99.90
12504;DHT22;6316;48.118;-1.690;2023-03-14T04:03:34;10.50;99.90
12504;DHT22;6316;48.118;-1.690;2023-03-14T04:06:06;10.60;99.90
12504;DHT22;6316;48.118;-1.690;2023-03-14T04:08:32;10.60;99.90
12504;DHT22;6316;48.118;-1.690;2023-03-14T04:10:59;10.60;99.90
12504;DHT22;6316;48.118;-1.690;2023-03-14T04:13:25;10.60;99.90
12504;DHT22;6316;48.118;-1.690;2023-03-14T04:15:51;10.60;99.90
12504;DHT22;6316;48.118;-1.690;2023-03-14T04:18:17;10.60;99.90
12504;DHT22;6316;48.118;-1.690;2023-03-14T04:20:43;10.60;99.90
12504;DHT22;6316;48.118;-1.690;2023-03-14T04:23:09;10.50;99.90
12504;DHT22;6316;48.118;-1.690;2023-03-14T04:25:35;10.50;99.90
12504;DHT22;6316;48.118;-1.690;2023-03-14T04:28:01;10.50;99.90
12504;DHT22;6316;48.118;-1.690;2023-03-14T04:30:28;10.50;99.90
12504;DHT22;6316;48.118;-1.690;2023-03-14T04:32:54;10.40;99.90
12504;DHT22;6316;48.118;-1.690;2023-03-14T04:35:20;10.40;99.90
12504;DHT22;6316;48.118;-1.690;2023-03-14T04:37:45;10.30;99.90
12504;DHT22;6316;48.118;-1.690;2023-03-14T04:40:15;10.30;99.90
12504;DHT22;6316;48.118;-1.690;2023-03-14T04:42:41;10.30;99.90
12504;DHT22;6316;48.118;-1.690;2023-03-14T04:45:07;10.30;99.90
12504;DHT22;6316;48.118;-1.690;2023-03-14T04:47:33;10.30;99.90
12504;DHT22;6316;48.118;-1.690;2023-03-14T04:49:58;10.30;99.90
12504;DHT22;6316;48.118;-1.690;2023-03-14T04:52:24;10.30;99.90
12504;DHT22;6316;48.118;-1.690;2023-03-14T04:54:50;10.30;99.90
12504;DHT22;6316;48.118;-1.690;2023-03-14T04:57:16;10.30;99.90
12504;DHT22;6316;48.118;-1.690;2023-03-14T04:59:41;10.30;99.90
12504;DHT22;6316;48.118;-1.690;2023-03-14T05:02:07;10.20;99.90
12504;DHT22;6316;48.118;-1.690;2023-03-14T05:04:33;10.20;99.90
12504;DHT22;6316;48.118;-1.690;2023-03-14T05:06:59;10.20;99.90
12504;DHT22;6316;48.118;-1.690;2023-03-14T05:09:25;10.10;99.90
12504;DHT22;6316;48.118;-1.690;2023-03-14T05:11:51;10.10;99.90
12504;DHT22;6316;48.118;-1.690;2023-03-14T05:14:16;10.00;99.90
12504;DHT22;6316;48.118;-1.690;2023-03-14T05:16:42;10.00;99.90
12504;DHT22;6316;48.118;-1.690;2023-03-14T05:19:08;9.90;99.90
12504;DHT22;6316;48.118;-1.690;2023-03-14T05:21:33;9.90;99.90
12504;DHT22;6316;48.118;-1.690;2023-03-14T05:23:59;9.80;99.90
12504;DHT22;6316;48.118;-1.690;2023-03-14T05:26:25;9.80;99.90
12504;DHT22;6316;48.118;-1.690;2023-03-14T05:28:50;9.70;99.90
12504;DHT22;6316;48.118;-1.690;2023-03-14T05:31:16;9.70;99.90
12504;DHT22;6316;48.118;-1.690;2023-03-14T05:33:41;9.60;99.90
12504;DHT22;6316;48.118;-1.690;2023-03-14T05:36:07;9.60;99.90
12504;DHT22;6316;48.118;-1.690;2023-03-14T05:38:33;9.60;99.90
12504;DHT22;6316;48.118;-1.690;2023-03-14T05:40:59;9.60;99.90
12504;DHT22;6316;48.118;-1.690;2023-03-14T05:43:24;9.50;99.90
12504;DHT22;6316;48.118;-1.690;2023-03-14T05:45:50;9.50;99.90
12504;DHT22;6316;48.118;-1.690;2023-03-14T05:48:16;9.40;99.90
12504;DHT22;6316;48.118;-1.690;2023-03-14T05:50:42;9.40;99.90
12504;DHT22;6316;48.118;-1.690;2023-03-14T05:53:08;9.40;99.90
12504;DHT22;6316;48.118;-1.690;2023-03-14T05:55:33;9.30;99.90
12504;DHT22;6316;48.118;-1.690;2023-03-14T05:57:59;9.30;99.90
12504;DHT22;6316;48.118;-1.690;2023-03-14T06:00:25;9.30;99.90
12504;DHT22;6316;48.118;-1.690;2023-03-14T06:02:50;9.30;99.90
12504;DHT22;6316;48.118;-1.690;2023-03-14T06:05:16;9.30;99.90
12504;DHT22;6316;48.118;-1.690;2023-03-14T06:07:42;9.20;99.90
12504;DHT22;6316;48.118;-1.690;2023-03-14T06:10:08;9.20;99.90
12504;DHT22;6316;48.118;-1.690;2023-03-14T06:12:34;9.20;99.90
12504;DHT22;6316;48.118;-1.690;2023-03-14T06:14:59;9.20;99.90
12504;DHT22;6316;48.118;-1.690;2023-03-14T06:17:25;9.20;99.90
12504;DHT22;6316;48.118;-1.690;2023-03-14T06:19:51;9.20;99.90
12504;DHT22;6316;48.118;-1.690;2023-03-14T06:22:16;9.20;99.90
12504;DHT22;6316;48.118;-1.690;2023-03-14T06:24:42;9.20;99.90
12504;DHT22;6316;48.118;-1.690;2023-03-14T06:27:08;9.20;99.90
12504;DHT22;6316;48.118;-1.690;2023-03-14T06:29:33;9.20;99.90
12504;DHT22;6316;48.118;-1.690;2023-03-14T06:31:59;9.20;99.90
12504;DHT22;6316;48.118;-1.690;2023-03-14T06:34:25;9.20;99.90
12504;DHT22;6316;48.118;-1.690;2023-03-14T06:36:51;9.20;99.90
12504;DHT22;6316;48.118;-1.690;2023-03-14T06:39:16;9.20;99.90
12504;DHT22;6316;48.118;-1.690;2023-03-14T06:41:42;9.30;99.90
12504;DHT22;6316;48.118;-1.690;2023-03-14T06:44:07;9.30;99.90
12504;DHT22;6316;48.118;-1.690;2023-03-14T06:46:33;9.40;99.90
12504;DHT22;6316;48.118;-1.690;2023-03-14T06:48:59;9.40;99.90
12504;DHT22;6316;48.118;-1.690;2023-03-14T06:51:24;9.40;99.90
12504;DHT22;6316;48.118;-1.690;2023-03-14T06:53:50;9.50;99.90
12504;DHT22;6316;48.118;-1.690;2023-03-14T06:56:16;9.50;99.90
12504;DHT22;6316;48.118;-1.690;2023-03-14T06:58:41;9.50;99.90
12504;DHT22;6316;48.118;-1.690;2023-03-14T07:01:20;9.40;99.90
12504;DHT22;6316;48.118;-1.690;2023-03-14T07:03:45;9.50;99.90
12504;DHT22;6316;48.118;-1.690;2023-03-14T07:06:11;9.50;99.90
12504;DHT22;6316;48.118;-1.690;2023-03-14T07:08:37;9.50;99.90
12504;DHT22;6316;48.118;-1.690;2023-03-14T07:11:04;9.50;99.90
12504;DHT22;6316;48.118;-1.690;2023-03-14T07:13:30;9.50;99.90
12504;DHT22;6316;48.118;-1.690;2023-03-14T07:15:55;9.50;99.90
12504;DHT22;6316;48.118;-1.690;2023-03-14T07:18:21;9.50;99.90
12504;DHT22;6316;48.118;-1.690;2023-03-14T07:20:47;9.50;99.90
12504;DHT22;6316;48.118;-1.690;2023-03-14T07:23:13;9.60;99.90
12504;DHT22;6316;48.118;-1.690;2023-03-14T07:25:38;9.60;99.90
12504;DHT22;6316;48.118;-1.690;2023-03-14T07:28:04;9.60;99.90
12504;DHT22;6316;48.118;-1.690;2023-03-14T07:30:30;9.60;99.90
12504;DHT22;6316;48.118;-1.690;2023-03-14T07:32:56;9.60;99.90
12504;DHT22;6316;48.118;-1.690;2023-03-14T07:35:21;9.70;99.90
12504;DHT22;6316;48.118;-1.690;2023-03-14T07:37:47;9.70;99.90
12504;DHT22;6316;48.118;-1.690;2023-03-14T07:40:13;9.60;99.90
12504;DHT22;6316;48.118;-1.690;2023-03-14T07:42:43;9.70;99.90
12504;DHT22;6316;48.118;-1.690;2023-03-14T07:45:10;10.10;99.90
12504;DHT22;6316;48.118;-1.690;2023-03-14T07:47:36;11.20;99.90
12504;DHT22;6316;48.118;-1.690;2023-03-14T07:50:04;12.20;99.90
12504;DHT22;6316;48.118;-1.690;2023-03-14T07:52:30;13.20;99.90
12504;DHT22;6316;48.118;-1.690;2023-03-14T07:54:56;14.10;99.90
12504;DHT22;6316;48.118;-1.690;2023-03-14T07:57:22;14.80;99.90
12504;DHT22;6316;48.118;-1.690;2023-03-14T07:59:49;15.30;99.90
12504;DHT22;6316;48.118;-1.690;2023-03-14T08:02:15;15.70;99.90
12504;DHT22;6316;48.118;-1.690;2023-03-14T08:04:41;16.20;99.90
12504;DHT22;6316;48.118;-1.690;2023-03-14T08:07:07;16.50;99.90
12504;DHT22;6316;48.118;-1.690;2023-03-14T08:09:32;16.80;99.90
12504;DHT22;6316;48.118;-1.690;2023-03-14T08:11:58;17.10;99.90
12504;DHT22;6316;48.118;-1.690;2023-03-14T08:14:24;17.20;99.90
12504;DHT22;6316;48.118;-1.690;2023-03-14T08:16:50;17.10;99.90
12504;DHT22;6316;48.118;-1.690;2023-03-14T08:19:16;17.00;99.90
12504;DHT22;6316;48.118;-1.690;2023-03-14T08:21:42;16.80;99.90
12504;DHT22;6316;48.118;-1.690;2023-03-14T08:24:08;16.50;99.90
12504;DHT22;6316;48.118;-1.690;2023-03-14T08:26:33;16.20;99.90
12504;DHT22;6316;48.118;-1.690;2023-03-14T08:28:59;15.90;99.90
12504;DHT22;6316;48.118;-1.690;2023-03-14T08:31:25;15.50;99.90
12504;DHT22;6316;48.118;-1.690;2023-03-14T08:33:51;15.20;99.90
12504;DHT22;6316;48.118;-1.690;2023-03-14T08:36:18;14.80;99.90
12504;DHT22;6316;48.118;-1.690;2023-03-14T08:38:44;14.40;99.90
12504;DHT22;6316;48.118;-1.690;2023-03-14T08:41:10;14.10;99.90
12504;DHT22;6316;48.118;-1.690;2023-03-14T08:43:36;13.70;99.90
12504;DHT22;6316;48.118;-1.690;2023-03-14T08:46:03;13.40;99.90
12504;DHT22;6316;48.118;-1.690;2023-03-14T08:48:29;13.20;99.90
12504;DHT22;6316;48.118;-1.690;2023-03-14T08:51:05;12.90;99.90
12504;DHT22;6316;48.118;-1.690;2023-03-14T08:53:31;12.70;99.90
12504;DHT22;6316;48.118;-1.690;2023-03-14T08:55:57;12.50;99.90
12504;DHT22;6316;48.118;-1.690;2023-03-14T08:58:23;12.40;99.90
12504;DHT22;6316;48.118;-1.690;2023-03-14T09:00:49;12.30;99.90
12504;DHT22;6316;48.118;-1.690;2023-03-14T09:03:15;12.20;99.90
12504;DHT22;6316;48.118;-1.690;2023-03-14T09:05:40;12.10;99.90
12504;DHT22;6316;48.118;-1.690;2023-03-14T09:08:06;12.10;99.90
12504;DHT22;6316;48.118;-1.690;2023-03-14T09:10:32;12.00;99.90
12504;DHT22;6316;48.118;-1.690;2023-03-14T09:12:57;12.00;99.90
12504;DHT22;6316;48.118;-1.690;2023-03-14T09:15:24;12.00;99.90
12504;DHT22;6316;48.118;-1.690;2023-03-14T09:17:49;12.00;99.90
12504;DHT22;6316;48.118;-1.690;2023-03-14T09:20:17;11.90;99.90
12504;DHT22;6316;48.118;-1.690;2023-03-14T09:22:42;11.90;99.90
12504;DHT22;6316;48.118;-1.690;2023-03-14T09:25:09;11.90;99.90
12504;DHT22;6316;48.118;-1.690;2023-03-14T09:27:36;11.90;99.90
12504;DHT22;6316;48.118;-1.690;2023-03-14T09:30:03;11.90;99.90
12504;DHT22;6316;48.118;-1.690;2023-03-14T09:32:30;11.90;99.90
12504;DHT22;6316;48.118;-1.690;2023-03-14T09:34:57;11.90;99.90
12504;DHT22;6316;48.118;-1.690;2023-03-14T09:37:22;11.90;99.90
12504;DHT22;6316;48.118;-1.690;2023-03-14T09:39:48;12.00;99.90
12504;DHT22;6316;48.118;-1.690;2023-03-14T09:42:17;12.00;99.90
12504;DHT22;6316;48.118;-1.690;2023-03-14T09:45:06;12.10;99.90
12504;DHT22;6316;48.118;-1.690;2023-03-14T09:47:33;12.30;99.90
12504;DHT22;6316;48.118;-1.690;2023-03-14T09:50:03;12.40;99.90
12504;DHT22;6316;48.118;-1.690;2023-03-14T09:52:35;12.50;99.90
12504;DHT22;6316;48.118;-1.690;2023-03-14T09:55:06;12.60;99.90
12504;DHT22;6316;48.118;-1.690;2023-03-14T09:57:36;12.60;99.90
12504;DHT22;6316;48.118;-1.690;2023-03-14T10:02:41;12.70;99.90
12504;DHT22;6316;48.118;-1.690;2023-03-14T10:05:15;12.80;99.90
12504;DHT22;6316;48.118;-1.690;2023-03-14T10:07:41;12.80;99.90
12504;DHT22;6316;48.118;-1.690;2023-03-14T10:10:26;12.90;99.90
12504;DHT22;6316;48.118;-1.690;2023-03-14T10:13:00;13.00;99.90
12504;DHT22;6316;48.118;-1.690;2023-03-14T10:15:32;13.00;99.90
12504;DHT22;6316;48.118;-1.690;2023-03-14T10:18:00;13.00;99.90
12504;DHT22;6316;48.118;-1.690;2023-03-14T10:20:32;13.00;99.90
12504;DHT22;6316;48.118;-1.690;2023-03-14T10:23:02;13.00;99.90
12504;DHT22;6316;48.118;-1.690;2023-03-14T10:25:31;13.00;99.90
12504;DHT22;6316;48.118;-1.690;2023-03-14T10:27:57;13.00;99.90
12504;DHT22;6316;48.118;-1.690;2023-03-14T10:30:33;13.00;99.90
12504;DHT22;6316;48.118;-1.690;2023-03-14T10:33:08;13.00;99.90
12504;DHT22;6316;48.118;-1.690;2023-03-14T10:35:35;12.90;99.90
12504;DHT22;6316;48.118;-1.690;2023-03-14T10:38:02;12.80;99.90
12504;DHT22;6316;48.118;-1.690;2023-03-14T10:40:32;12.80;99.90
12504;DHT22;6316;48.118;-1.690;2023-03-14T10:42:59;12.80;99.90
12504;DHT22;6316;48.118;-1.690;2023-03-14T10:45:33;12.70;99.90
12504;DHT22;6316;48.118;-1.690;2023-03-14T10:48:50;12.70;99.90
12504;DHT22;6316;48.118;-1.690;2023-03-14T10:50:57;12.70;99.90
12504;DHT22;6316;48.118;-1.690;2023-03-14T10:53:24;12.70;99.90
12504;DHT22;6316;48.118;-1.690;2023-03-14T10:55:49;12.70;99.90
12504;DHT22;6316;48.118;-1.690;2023-03-14T11:00:53;13.00;99.90
12504;DHT22;6316;48.118;-1.690;2023-03-14T11:03:22;13.00;99.90
12504;DHT22;6316;48.118;-1.690;2023-03-14T11:06:20;13.10;99.90
12504;DHT22;6316;48.118;-1.690;2023-03-14T11:08:57;13.30;99.90
12504;DHT22;6316;48.118;-1.690;2023-03-14T11:11:31;13.30;99.90
12504;DHT22;6316;48.118;-1.690;2023-03-14T11:14:27;13.30;99.90
12504;DHT22;6316;48.118;-1.690;2023-03-14T11:17:02;13.30;99.90
12504;DHT22;6316;48.118;-1.690;2023-03-14T11:22:14;13.50;99.90
12504;DHT22;6316;48.118;-1.690;2023-03-14T11:27:40;13.80;99.90
12504;DHT22;6316;48.118;-1.690;2023-03-14T11:38:18;13.80;99.90
12504;DHT22;6316;48.118;-1.690;2023-03-14T11:40:46;13.80;99.90
12504;DHT22;6316;48.118;-1.690;2023-03-14T11:43:20;13.90;99.90
12504;DHT22;6316;48.118;-1.690;2023-03-14T11:45:48;14.00;99.90
12504;DHT22;6316;48.118;-1.690;2023-03-14T11:51:24;14.20;99.90
12504;DHT22;6316;48.118;-1.690;2023-03-14T11:54:18;14.20;99.90
12504;DHT22;6316;48.118;-1.690;2023-03-14T11:56:50;14.30;99.90
12504;DHT22;6316;48.118;-1.690;2023-03-14T11:59:33;14.40;99.90
12504;DHT22;6316;48.118;-1.690;2023-03-14T12:10:54;14.40;99.90
12504;DHT22;6316;48.118;-1.690;2023-03-14T12:13:21;14.40;99.90
12504;DHT22;6316;48.118;-1.690;2023-03-14T12:15:58;14.40;99.90
12504;DHT22;6316;48.118;-1.690;2023-03-14T12:18:36;14.40;99.90
12504;DHT22;6316;48.118;-1.690;2023-03-14T12:21:09;14.50;99.90
12504;DHT22;6316;48.118;-1.690;2023-03-14T12:23:44;14.50;99.90
12504;DHT22;6316;48.118;-1.690;2023-03-14T12:26:16;14.50;99.90
12504;DHT22;6316;48.118;-1.690;2023-03-14T12:42:43;14.40;99.90
12504;DHT22;6316;48.118;-1.690;2023-03-14T12:45:28;14.40;99.90
12504;DHT22;6316;48.118;-1.690;2023-03-14T12:50:28;14.60;99.90
12504;DHT22;6316;48.118;-1.690;2023-03-14T12:53:08;14.70;99.90
12504;DHT22;6316;48.118;-1.690;2023-03-14T12:58:40;14.80;99.90
12504;DHT22;6316;48.118;-1.690;2023-03-14T13:01:16;14.70;99.90
12504;DHT22;6316;48.118;-1.690;2023-03-14T13:03:55;14.60;99.90
12504;DHT22;6316;48.118;-1.690;2023-03-14T13:12:25;14.20;99.90
12504;DHT22;6316;48.118;-1.690;2023-03-14T13:14:53;14.10;99.90
12504;DHT22;6316;48.118;-1.690;2023-03-14T13:17:33;14.10;99.90
12504;DHT22;6316;48.118;-1.690;2023-03-14T13:20:09;14.20;99.90
12504;DHT22;6316;48.118;-1.690;2023-03-14T13:22:37;14.20;99.90
12504;DHT22;6316;48.118;-1.690;2023-03-14T13:25:10;14.30;99.90
12504;DHT22;6316;48.118;-1.690;2023-03-14T13:27:36;14.40;99.90
12504;DHT22;6316;48.118;-1.690;2023-03-14T13:30:22;14.60;99.90
12504;DHT22;6316;48.118;-1.690;2023-03-14T13:32:50;14.90;99.90
12504;DHT22;6316;48.118;-1.690;2023-03-14T13:35:17;15.10;99.90
12504;DHT22;6316;48.118;-1.690;2023-03-14T13:37:42;15.10;99.90
12504;DHT22;6316;48.118;-1.690;2023-03-14T13:40:33;15.20;99.90
12504;DHT22;6316;48.118;-1.690;2023-03-14T13:43:13;15.10;99.90
12504;DHT22;6316;48.118;-1.690;2023-03-14T13:48:25;14.70;99.90
12504;DHT22;6316;48.118;-1.690;2023-03-14T13:50:55;14.50;99.90
12504;DHT22;6316;48.118;-1.690;2023-03-14T13:53:22;14.40;99.90
12504;DHT22;6316;48.118;-1.690;2023-03-14T13:55:49;14.20;99.90
12504;DHT22;6316;48.118;-1.690;2023-03-14T13:58:24;14.10;99.90
12504;DHT22;6316;48.118;-1.690;2023-03-14T14:00:58;14.00;99.90
12504;DHT22;6316;48.118;-1.690;2023-03-14T14:03:24;13.90;99.90
12504;DHT22;6316;48.118;-1.690;2023-03-14T14:05:50;13.80;99.90
12504;DHT22;6316;48.118;-1.690;2023-03-14T14:08:16;13.90;99.90
12504;DHT22;6316;48.118;-1.690;2023-03-14T14:10:41;13.90;99.90
12504;DHT22;6316;48.118;-1.690;2023-03-14T14:13:13;13.90;99.90
12504;DHT22;6316;48.118;-1.690;2023-03-14T14:15:43;13.90;99.90
12504;DHT22;6316;48.118;-1.690;2023-03-14T14:18:16;13.70;99.90
12504;DHT22;6316;48.118;-1.690;2023-03-14T14:20:44;13.80;99.90
12504;DHT22;6316;48.118;-1.690;2023-03-14T14:23:13;13.70;99.90
12504;DHT22;6316;48.118;-1.690;2023-03-14T14:25:39;13.70;99.90
12504;DHT22;6316;48.118;-1.690;2023-03-14T14:28:35;13.60;99.90
12504;DHT22;6316;48.118;-1.690;2023-03-14T14:33:44;13.50;99.90
12504;DHT22;6316;48.118;-1.690;2023-03-14T14:36:22;13.40;99.90
12504;DHT22;6316;48.118;-1.690;2023-03-14T14:39:18;13.40;99.90
12504;DHT22;6316;48.118;-1.690;2023-03-14T14:41:45;13.50;99.90
12504;DHT22;6316;48.118;-1.690;2023-03-14T14:44:16;13.50;99.90
12504;DHT22;6316;48.118;-1.690;2023-03-14T14:46:42;13.50;99.90
12504;DHT22;6316;48.118;-1.690;2023-03-14T14:49:14;13.50;99.90
12504;DHT22;6316;48.118;-1.690;2023-03-14T14:51:48;13.60;99.90
12504;DHT22;6316;48.118;-1.690;2023-03-14T14:54:32;13.60;99.90
12504;DHT22;6316;48.118;-1.690;2023-03-14T14:57:03;13.50;99.90
12504;DHT22;6316;48.118;-1.690;2023-03-14T14:59:29;13.60;99.90
12504;DHT22;6316;48.118;-1.690;2023-03-14T15:02:00;13.70;99.90
12504;DHT22;6316;48.118;-1.690;2023-03-14T15:04:26;13.70;99.90
12504;DHT22;6316;48.118;-1.690;2023-03-14T15:06:52;13.70;99.90
12504;DHT22;6316;48.118;-1.690;2023-03-14T15:09:18;13.60;99.90
12504;DHT22;6316;48.118;-1.690;2023-03-14T15:11:46;13.60;99.90
12504;DHT22;6316;48.118;-1.690;2023-03-14T15:14:11;13.50;99.90
12504;DHT22;6316;48.118;-1.690;2023-03-14T15:16:38;13.40;99.90
12504;DHT22;6316;48.118;-1.690;2023-03-14T15:19:16;13.40;99.90
12504;DHT22;6316;48.118;-1.690;2023-03-14T15:21:44;13.40;99.90
12504;DHT22;6316;48.118;-1.690;2023-03-14T15:24:10;13.40;99.90
12504;DHT22;6316;48.118;-1.690;2023-03-14T15:26:35;13.40;99.90
12504;DHT22;6316;48.118;-1.690;2023-03-14T15:29:01;13.40;99.90
12504;DHT22;6316;48.118;-1.690;2023-03-14T15:31:27;13.30;99.90
12504;DHT22;6316;48.118;-1.690;2023-03-14T15:33:52;13.30;99.90
12504;DHT22;6316;48.118;-1.690;2023-03-14T15:36:27;13.30;99.90
12504;DHT22;6316;48.118;-1.690;2023-03-14T15:38:54;13.20;99.90
12504;DHT22;6316;48.118;-1.690;2023-03-14T15:41:21;13.20;99.90
12504;DHT22;6316;48.118;-1.690;2023-03-14T15:43:47;13.10;99.90
12504;DHT22;6316;48.118;-1.690;2023-03-14T15:46:13;13.10;99.90
12504;DHT22;6316;48.118;-1.690;2023-03-14T15:48:40;13.10;99.90
12504;DHT22;6316;48.118;-1.690;2023-03-14T15:51:06;13.00;99.90
12504;DHT22;6316;48.118;-1.690;2023-03-14T15:53:32;13.00;99.90
12504;DHT22;6316;48.118;-1.690;2023-03-14T15:55:58;13.00;99.90
12504;DHT22;6316;48.118;-1.690;2023-03-14T15:58:23;12.90;99.90
12504;DHT22;6316;48.118;-1.690;2023-03-14T16:00:50;12.90;99.90
12504;DHT22;6316;48.118;-1.690;2023-03-14T16:03:16;12.90;99.90
12504;DHT22;6316;48.118;-1.690;2023-03-14T16:05:42;12.90;99.90
12504;DHT22;6316;48.118;-1.690;2023-03-14T16:08:08;12.80;99.90
12504;DHT22;6316;48.118;-1.690;2023-03-14T16:10:33;12.80;99.90
12504;DHT22;6316;48.118;-1.690;2023-03-14T16:12:59;12.80;99.90
12504;DHT22;6316;48.118;-1.690;2023-03-14T16:15:26;12.80;99.90
12504;DHT22;6316;48.118;-1.690;2023-03-14T16:17:53;12.80;99.90
12504;DHT22;6316;48.118;-1.690;2023-03-14T16:20:19;12.90;99.90
12504;DHT22;6316;48.118;-1.690;2023-03-14T16:22:45;12.90;99.90
12504;DHT22;6316;48.118;-1.690;2023-03-14T16:25:11;12.80;99.90
12504;DHT22;6316;48.118;-1.690;2023-03-14T16:27:37;12.80;99.90
12504;DHT22;6316;48.118;-1.690;2023-03-14T16:30:03;12.80;99.90
12504;DHT22;6316;48.118;-1.690;2023-03-14T16:32:29;12.80;99.90
12504;DHT22;6316;48.118;-1.690;2023-03-14T16:34:55;12.80;99.90
12504;DHT22;6316;48.118;-1.690;2023-03-14T16:37:23;12.70;99.90
12504;DHT22;6316;48.118;-1.690;2023-03-14T16:39:48;12.70;99.90
12504;DHT22;6316;48.118;-1.690;2023-03-14T16:42:14;12.70;99.90
12504;DHT22;6316;48.118;-1.690;2023-03-14T16:44:40;12.60;99.90
12504;DHT22;6316;48.118;-1.690;2023-03-14T16:47:06;12.60;99.90
12504;DHT22;6316;48.118;-1.690;2023-03-14T16:49:32;12.50;99.90
12504;DHT22;6316;48.118;-1.690;2023-03-14T16:51:57;12.40;99.90